This is the latest recevied weather packets stored in our database for station/object K1KOF. If no packets are shown the sender has not sent any weather packets the latest 10 day(s).
| Time | Temp. | Humidity | Pressure | Rain* | Wind** | Luminosity | Snow |
|---|---|---|---|---|---|---|---|
| 1777844308 | 22.22° C | 42% | 1026.9 hPa | 0 mm | - | 228 W/m² | - |
| 1777844005 | 22.22° C | 40% | 1027 hPa | 0 mm | - | 418 W/m² | - |
| 1777843097 | 22.22° C | 41% | 1027 hPa | 0 mm | - | 378 W/m² | - |
| 1777842794 | 22.22° C | 41% | 1026.9 hPa | 0 mm | - | 472 W/m² | - |
| 1777840674 | 21.67° C | 44% | 1027.3 hPa | 0 mm | - | 486 W/m² | - |
| 1777840372 | 21.11° C | 43% | 1027.3 hPa | 0 mm | - | 533 W/m² | - |
| 1777840068 | 21.11° C | 43% | 1027.5 hPa | 0 mm | - | 629 W/m² | - |
| 1777839767 | 21.11° C | 43% | 1027.4 hPa | 0 mm | - | 624 W/m² | - |
| 1777838554 | 21.11° C | 41% | 1027.9 hPa | 0 mm | - | 416 W/m² | - |
| 1777837948 | 21.67° C | 44% | 1028 hPa | 0 mm | - | 548 W/m² | - |
| 1777836734 | 21.11° C | 45% | 1028.5 hPa | 0 mm | - | 667 W/m² | - |
| 1777836125 | 21.67° C | 43% | 1028.8 hPa | 0 mm | - | 690 W/m² | - |
| 1777835822 | 21.11° C | 43% | 1028.8 hPa | 0 mm | - | 683 W/m² | - |
| 1777835519 | 20.56° C | 45% | 1028.8 hPa | 0 mm | - | 734 W/m² | - |
| 1777833393 | 18.89° C | 47% | 1029.3 hPa | 0 mm | - | 610 W/m² | - |
| 1777833090 | 19.44° C | 48% | 1029.5 hPa | 0 mm | - | 736 W/m² | - |
| 1777832788 | 20.56° C | 47% | 1029.6 hPa | 0 mm | - | 738 W/m² | - |
| 1777832486 | 19.44° C | 51% | 1029.9 hPa | 0 mm | - | 712 W/m² | - |
| 1777832183 | 20.56° C | 48% | 1029.6 hPa | 0 mm | - | 744 W/m² | - |
| 1777831880 | 20° C | 50% | 1029.8 hPa | 0 mm | - | 678 W/m² | - |
| 1777831577 | 18.89° C | 48% | 1029.7 hPa | 0 mm | - | 711 W/m² | - |
| 1777831275 | 18.33° C | 49% | 1030 hPa | 0 mm | - | 766 W/m² | - |
| 1777829757 | 18.89° C | 51% | 1030 hPa | 0 mm | - | 738 W/m² | - |
| 1777829151 | 20° C | 47% | 1030.1 hPa | 0 mm | - | 778 W/m² | - |
| 1777827636 | 18.33° C | 51% | 1030.6 hPa | 0 mm | - | 617 W/m² | - |
* Rain latest hour (hover to see other rain measurements)
** Current wind speed in m/s (hover to see current wind gust speed)